Time;durP1;ratioP1;P1;durP2;ratioP2;P2;SDS_P1;SDS_P2;PMS_P1;PMS_P2;Temp;Humidity;BMP_temperature;BMP_pressure;BME280_temperature;BME280_humidity;BME280_pressure;Samples;Min_cycle;Max_cycle;Signal;HPM_P1;HPM_P2
2023/07/07 00:00:25;;;;;;;1999.90;999.90;;;19.60;93.40;;;;;;5067614;28;20051;-72
2023/07/07 00:02:52;;;;;;;1999.90;999.90;;;20.10;93.20;;;;;;5081316;28;20032;-71
2023/07/07 00:05:19;;;;;;;1999.90;999.90;;;20.70;92.30;;;;;;5072225;28;20036;-70
2023/07/07 00:07:48;;;;;;;1999.90;999.90;;;21.20;92.30;;;;;;5088348;28;20386;-72
2023/07/07 00:10:17;;;;;;;1999.90;999.90;;;21.70;91.90;;;;;;5084901;28;20111;-72
2023/07/07 00:12:46;;;;;;;1999.90;999.90;;;22.40;91.30;;;;;;5090136;28;20028;-72
2023/07/07 00:15:14;;;;;;;1999.90;999.90;;;22.80;90.60;;;;;;5084864;28;20015;-72
2023/07/07 00:17:42;;;;;;;1999.90;999.90;;;23.00;90.40;;;;;;5082100;28;20034;-71
2023/07/07 00:20:14;;;;;;;1999.90;999.90;;;23.40;86.70;;;;;;5091217;28;20016;-71
2023/07/07 00:22:41;;;;;;;1999.90;999.90;;;22.80;87.50;;;;;;5091785;28;20032;-71
2023/07/07 00:25:09;;;;;;;1999.90;999.90;;;22.50;88.80;;;;;;5083744;28;20043;-71
2023/07/07 00:27:38;;;;;;;1999.90;999.90;;;22.10;86.30;;;;;;5086802;28;20374;-72
2023/07/07 00:30:06;;;;;;;1999.90;999.90;;;21.00;88.40;;;;;;5078541;28;20649;-70
2023/07/07 00:32:33;;;;;;;1999.90;999.90;;;20.10;90.10;;;;;;5086104;28;20437;-72
2023/07/07 00:35:01;;;;;;;1999.90;999.90;;;19.50;90.60;;;;;;5089234;28;20061;-73
2023/07/07 00:37:28;;;;;;;1999.90;999.90;;;19.40;91.40;;;;;;5091550;28;20032;-70
2023/07/07 00:39:55;;;;;;;1999.90;999.90;;;19.70;91.50;;;;;;5090227;28;20482;-72
2023/07/07 00:42:24;;;;;;;1999.90;999.90;;;20.60;90.60;;;;;;5089240;28;20036;-70
2023/07/07 00:45:14;;;;;;;1999.90;999.90;;;22.00;88.10;;;;;;5083741;28;20070;-72
2023/07/07 00:48:03;;;;;;;1999.90;999.90;;;23.20;86.10;;;;;;5094963;28;20032;-71
2023/07/07 00:50:36;;;;;;;1999.90;999.90;;;23.90;84.30;;;;;;5090801;28;20027;-73
2023/07/07 00:53:05;;;;;;;1999.90;999.90;;;24.20;82.80;;;;;;5089967;28;20560;-74
2023/07/07 00:55:42;;;;;;;1999.90;999.90;;;24.70;83.70;;;;;;5080331;28;20032;-71
2023/07/07 00:58:16;;;;;;;1999.90;999.90;;;25.30;81.80;;;;;;5081870;28;20100;-72
2023/07/07 01:00:53;;;;;;;1999.90;999.90;;;25.80;79.90;;;;;;5080760;28;20096;-74
2023/07/07 01:03:30;;;;;;;1999.90;999.90;;;25.90;79.30;;;;;;5082205;28;20040;-71
2023/07/07 01:06:00;;;;;;;1999.90;999.90;;;26.30;77.70;;;;;;5078013;28;20455;-70
2023/07/07 01:08:28;;;;;;;1999.90;999.90;;;26.30;77.90;;;;;;5088775;28;20024;-71
2023/07/07 01:10:55;;;;;;;1999.90;999.90;;;26.70;77.00;;;;;;5091970;28;20042;-71
2023/07/07 01:13:23;;;;;;;1999.90;999.90;;;26.90;76.60;;;;;;5089678;28;20024;-70
2023/07/07 01:16:20;;;;;;;1999.90;999.90;;;27.20;76.40;;;;;;5086728;28;20039;-70
2023/07/07 01:19:17;;;;;;;1999.90;999.90;;;27.30;76.00;;;;;;5095013;28;20363;-73
2023/07/07 01:22:02;;;;;;;1999.90;999.90;;;27.90;74.20;;;;;;5094581;28;20060;-70
2023/07/07 01:24:57;;;;;;;1999.90;999.90;;;27.70;73.50;;;;;;5087646;28;20024;-72
2023/07/07 01:27:35;;;;;;;1999.90;999.90;;;27.30;73.60;;;;;;5088969;28;20066;-70
2023/07/07 01:30:18;;;;;;;1999.90;999.90;;;27.20;73.40;;;;;;5083283;28;20024;-71
2023/07/07 01:32:46;;;;;;;1999.90;999.90;;;27.30;72.40;;;;;;5075962;28;20048;-73
2023/07/07 01:35:18;;;;;;;1999.90;999.90;;;27.50;73.40;;;;;;5081470;28;20024;-74
2023/07/07 01:38:30;;;;;;;1999.90;999.90;;;27.20;73.50;;;;;;5095378;28;20031;-72
2023/07/07 01:41:10;;;;;;;1999.90;999.90;;;27.50;71.90;;;;;;5062562;28;20032;-76
2023/07/07 01:44:01;;;;;;;1999.90;999.90;;;27.80;71.90;;;;;;5079491;28;20039;-72
2023/07/07 01:46:31;;;;;;;1999.90;999.90;;;28.00;72.20;;;;;;5084351;28;20491;-70
2023/07/07 01:49:14;;;;;;;1999.90;999.90;;;28.30;71.80;;;;;;5085975;28;20024;-72
2023/07/07 01:52:06;;;;;;;1999.90;999.90;;;28.60;70.30;;;;;;5087064;28;20650;-72
2023/07/07 01:54:38;;;;;;;1999.90;999.90;;;28.40;71.20;;;;;;5068641;28;20071;-74
2023/07/07 01:57:08;;;;;;;1999.90;999.90;;;28.50;70.30;;;;;;5088061;28;20487;-75
2023/07/07 01:59:37;;;;;;;1999.90;999.90;;;28.50;70.30;;;;;;5095331;28;20025;-69
2023/07/07 02:02:05;;;;;;;1999.90;999.90;;;28.40;71.40;;;;;;5085908;28;20036;-70
2023/07/07 02:04:32;;;;;;;1999.90;999.90;;;28.50;71.70;;;;;;5079237;28;20044;-70
2023/07/07 02:07:00;;;;;;;1999.90;999.90;;;28.70;71.10;;;;;;5077439;28;20059;-73
2023/07/07 02:09:27;;;;;;;1999.90;999.90;;;28.80;69.80;;;;;;5085502;28;20032;-74
2023/07/07 02:11:55;;;;;;;1999.90;999.90;;;28.70;70.40;;;;;;5081284;28;20036;-71
2023/07/07 02:14:22;;;;;;;1999.90;999.90;;;28.60;70.70;;;;;;5097139;28;20035;-74
2023/07/07 02:16:49;;;;;;;1999.90;999.90;;;28.70;70.40;;;;;;5081258;28;20039;-70
2023/07/07 02:19:17;;;;;;;1999.90;999.90;;;28.90;71.40;;;;;;5093928;28;20085;-74
2023/07/07 02:21:45;;;;;;;1999.90;999.90;;;28.90;71.30;;;;;;5092090;28;20024;-72
2023/07/07 02:24:12;;;;;;;1999.90;999.90;;;28.60;68.80;;;;;;5090472;28;21894;-78
2023/07/07 02:26:40;;;;;;;1999.90;999.90;;;28.40;69.20;;;;;;5088308;28;20100;-74
2023/07/07 02:29:07;;;;;;;1999.90;999.90;;;28.20;70.50;;;;;;5089974;28;20780;-74
2023/07/07 02:31:35;;;;;;;1999.90;999.90;;;27.50;71.50;;;;;;5091700;28;20042;-72
2023/07/07 02:34:02;;;;;;;1999.90;999.90;;;26.10;70.70;;;;;;5091215;28;20012;-73
2023/07/07 02:36:29;;;;;;;1999.90;999.90;;;25.20;71.80;;;;;;5092387;28;20055;-72
2023/07/07 02:38:57;;;;;;;1999.90;999.90;;;24.60;73.30;;;;;;5081305;28;20032;-72
2023/07/07 02:41:24;;;;;;;1999.90;999.90;;;23.90;75.10;;;;;;5091319;28;20047;-71
2023/07/07 02:43:51;;;;;;;1999.90;999.90;;;23.30;75.70;;;;;;5098454;28;20384;-71
2023/07/07 02:46:19;;;;;;;1999.90;999.90;;;23.30;76.30;;;;;;5090687;28;20066;-73
2023/07/07 02:48:46;;;;;;;1999.90;999.90;;;22.90;76.70;;;;;;5098373;28;20024;-76
2023/07/07 02:51:13;;;;;;;1999.90;999.90;;;22.80;78.80;;;;;;5082302;28;20028;-73
2023/07/07 02:53:41;;;;;;;1999.90;999.90;;;23.30;78.10;;;;;;5098947;28;20076;-70
2023/07/07 02:56:08;;;;;;;1999.90;999.90;;;24.00;77.80;;;;;;5094652;28;20023;-73
2023/07/07 02:58:36;;;;;;;1999.90;999.90;;;23.60;76.90;;;;;;5087330;28;20969;-71
2023/07/07 03:01:23;;;;;;;1999.90;999.90;;;22.80;75.90;;;;;;5086079;28;20032;-73
2023/07/07 03:03:52;;;;;;;1999.90;999.90;;;22.90;76.30;;;;;;5089805;28;20059;-70
2023/07/07 03:06:22;;;;;;;1999.90;999.90;;;22.80;75.00;;;;;;5086635;28;20032;-75
2023/07/07 03:08:50;;;;;;;1999.90;999.90;;;22.70;74.90;;;;;;5089827;28;20020;-70
2023/07/07 03:11:21;;;;;;;1999.90;999.90;;;22.90;76.20;;;;;;5091415;28;20031;-72
2023/07/07 03:13:50;;;;;;;1999.90;999.90;;;23.20;75.90;;;;;;5081108;28;20043;-70
2023/07/07 03:16:24;;;;;;;1999.90;999.90;;;23.40;75.60;;;;;;5094343;28;20028;-73
2023/07/07 03:18:59;;;;;;;1999.90;999.90;;;23.30;73.90;;;;;;5088241;28;20030;-73
2023/07/07 03:21:27;;;;;;;1999.90;999.90;;;23.20;74.90;;;;;;5080200;28;20036;-72
2023/07/07 03:23:56;;;;;;;1999.90;999.90;;;22.80;73.40;;;;;;5081243;28;20482;-71
2023/07/07 03:26:25;;;;;;;1999.90;999.90;;;22.50;75.10;;;;;;5084085;28;20043;-70
2023/07/07 03:28:54;;;;;;;1999.90;999.90;;;22.10;74.40;;;;;;5087813;28;20021;-73
2023/07/07 03:31:28;;;;;;;1999.90;999.90;;;21.30;76.10;;;;;;5094747;28;20027;-68
2023/07/07 03:33:58;;;;;;;1999.90;999.90;;;20.80;76.90;;;;;;5094167;28;20025;-70
2023/07/07 03:36:28;;;;;;;1999.90;999.90;;;20.50;77.10;;;;;;5085464;28;20548;-71
2023/07/07 03:38:56;;;;;;;1999.90;999.90;;;20.20;78.30;;;;;;5095798;28;20374;-73
2023/07/07 03:41:26;;;;;;;1999.90;999.90;;;20.10;79.20;;;;;;5074552;28;20032;-71
2023/07/07 03:43:55;;;;;;;1999.90;999.90;;;20.10;78.50;;;;;;5084798;28;20028;-70
2023/07/07 03:46:24;;;;;;;1999.90;999.90;;;20.00;78.50;;;;;;5094309;28;20032;-75
2023/07/07 03:48:53;;;;;;;1999.90;999.90;;;19.60;78.40;;;;;;5094379;28;20754;-71
2023/07/07 03:51:22;;;;;;;1999.90;999.90;;;19.40;79.10;;;;;;5093172;28;20036;-71
2023/07/07 03:53:51;;;;;;;1999.90;999.90;;;19.20;79.30;;;;;;5084734;28;20032;-72
2023/07/07 03:56:20;;;;;;;1999.90;999.90;;;19.20;79.00;;;;;;5092722;28;20039;-74
2023/07/07 03:58:48;;;;;;;1999.90;999.90;;;19.20;79.50;;;;;;5092654;28;20118;-70
2023/07/07 04:01:16;;;;;;;1999.90;999.90;;;19.20;80.10;;;;;;5086812;28;20028;-70
2023/07/07 04:03:47;;;;;;;1999.90;999.90;;;19.10;79.50;;;;;;5094936;28;20054;-74
2023/07/07 04:06:18;;;;;;;1999.90;999.90;;;19.00;79.90;;;;;;5081088;28;20046;-71
2023/07/07 04:08:46;;;;;;;1999.90;999.90;;;19.10;80.00;;;;;;5096430;28;20020;-68
2023/07/07 04:11:19;;;;;;;1999.90;999.90;;;19.00;79.00;;;;;;5083166;28;20039;-69
2023/07/07 04:13:48;;;;;;;1999.90;999.90;;;18.90;79.90;;;;;;5096532;28;20043;-70
2023/07/07 04:16:26;;;;;;;1999.90;999.90;;;18.90;79.80;;;;;;5089126;28;20066;-70
2023/07/07 04:18:55;;;;;;;1999.90;999.90;;;18.80;80.20;;;;;;5090644;28;20031;-73
2023/07/07 04:21:25;;;;;;;1999.90;999.90;;;18.60;80.80;;;;;;5090160;28;20077;-72
2023/07/07 04:23:55;;;;;;;1999.90;999.90;;;18.50;81.40;;;;;;5078597;28;20111;-69
2023/07/07 04:26:23;;;;;;;1999.90;999.90;;;18.40;81.20;;;;;;5087030;28;20047;-69
2023/07/07 04:28:52;;;;;;;1999.90;999.90;;;18.40;81.40;;;;;;5084220;28;20031;-69
2023/07/07 04:31:23;;;;;;;1999.90;999.90;;;18.30;81.50;;;;;;5087333;28;20016;-72
2023/07/07 04:33:51;;;;;;;1999.90;999.90;;;18.10;81.60;;;;;;5083877;28;20044;-72
2023/07/07 04:36:18;;;;;;;1999.90;999.90;;;18.10;82.40;;;;;;5085632;28;20074;-71
2023/07/07 04:38:46;;;;;;;1999.90;999.90;;;18.00;81.70;;;;;;5089107;28;20051;-73
2023/07/07 04:41:18;;;;;;;1999.90;999.90;;;18.00;81.50;;;;;;5087499;28;20030;-69
2023/07/07 04:43:51;;;;;;;1999.90;999.90;;;17.80;81.30;;;;;;5093136;28;20478;-71
2023/07/07 04:46:23;;;;;;;1999.90;999.90;;;17.80;81.90;;;;;;5086109;28;20089;-75
2023/07/07 04:48:51;;;;;;;1999.90;999.90;;;17.80;81.50;;;;;;5084433;28;20138;-73
2023/07/07 04:51:18;;;;;;;1999.90;999.90;;;17.70;82.30;;;;;;5088951;28;20028;-70
2023/07/07 04:53:46;;;;;;;1999.90;999.90;;;17.70;82.40;;;;;;5086463;28;20028;-69
2023/07/07 04:56:21;;;;;;;1999.90;999.90;;;17.80;81.90;;;;;;5083612;28;20074;-71
2023/07/07 04:58:50;;;;;;;1999.90;999.90;;;17.70;82.90;;;;;;5086396;28;20154;-70
2023/07/07 05:01:19;;;;;;;1999.90;999.90;;;17.70;82.90;;;;;;5073119;28;20105;-72
2023/07/07 05:03:55;;;;;;;1999.90;999.90;;;17.70;82.10;;;;;;5073630;28;21075;-71
2023/07/07 05:06:23;;;;;;;1999.90;999.90;;;17.70;82.40;;;;;;5089463;28;20490;-70
2023/07/07 05:08:51;;;;;;;1999.90;999.90;;;17.60;82.30;;;;;;5078285;28;20029;-70
2023/07/07 05:11:21;;;;;;;1999.90;999.90;;;17.60;82.30;;;;;;5078290;28;20097;-72
2023/07/07 05:13:50;;;;;;;1999.90;999.90;;;17.60;83.50;;;;;;5077394;28;20474;-72
2023/07/07 05:16:21;;;;;;;1999.90;999.90;;;17.50;83.40;;;;;;5083547;28;20039;-71
2023/07/07 05:18:49;;;;;;;1999.90;999.90;;;17.50;82.20;;;;;;5098567;28;20015;-71
2023/07/07 05:21:18;;;;;;;1999.90;999.90;;;17.40;82.00;;;;;;5093879;28;20085;-73
2023/07/07 05:23:46;;;;;;;1999.90;999.90;;;17.40;82.10;;;;;;5095370;28;20065;-72
2023/07/07 05:26:14;;;;;;;1999.90;999.90;;;17.40;82.40;;;;;;5087966;28;20044;-75
2023/07/07 05:28:41;;;;;;;1999.90;999.90;;;17.30;82.60;;;;;;5085266;28;20028;-72
2023/07/07 05:31:09;;;;;;;1999.90;999.90;;;17.30;83.10;;;;;;5088250;28;20156;-76
2023/07/07 05:33:39;;;;;;;1999.90;999.90;;;17.30;83.20;;;;;;5081341;28;20020;-71
2023/07/07 05:36:10;;;;;;;1999.90;999.90;;;17.30;83.30;;;;;;5091043;28;20051;-71
2023/07/07 05:38:42;;;;;;;1999.90;999.90;;;17.40;82.40;;;;;;5092369;28;20129;-71
2023/07/07 05:41:10;;;;;;;1999.90;999.90;;;17.40;83.00;;;;;;5093421;28;20055;-69
2023/07/07 05:43:38;;;;;;;1999.90;999.90;;;17.30;83.30;;;;;;5084605;28;20406;-71
2023/07/07 05:46:12;;;;;;;1999.90;999.90;;;17.30;83.70;;;;;;5090121;28;21558;-71
2023/07/07 05:48:41;;;;;;;1999.90;999.90;;;17.30;83.90;;;;;;5093381;28;20027;-73
2023/07/07 05:51:12;;;;;;;1999.90;999.90;;;17.20;84.30;;;;;;5083923;28;20035;-71
2023/07/07 05:53:40;;;;;;;1999.90;999.90;;;17.20;84.40;;;;;;5084429;28;20111;-72
2023/07/07 05:56:31;;;;;;;1999.90;999.90;;;17.10;84.90;;;;;;5084694;28;20019;-72
2023/07/07 05:58:58;;;;;;;1999.90;999.90;;;17.20;85.00;;;;;;5093943;28;20082;-72
2023/07/07 06:01:26;;;;;;;1999.90;999.90;;;17.10;84.90;;;;;;5090524;28;20036;-73
2023/07/07 06:03:54;;;;;;;1999.90;999.90;;;17.20;84.30;;;;;;5094685;28;20765;-73
2023/07/07 06:06:21;;;;;;;1999.90;999.90;;;17.20;84.90;;;;;;5081297;28;20059;-73
2023/07/07 06:08:49;;;;;;;1999.90;999.90;;;17.30;84.00;;;;;;5079574;28;20024;-72
2023/07/07 06:11:16;;;;;;;1999.90;999.90;;;17.30;84.00;;;;;;5082309;28;20375;-72
2023/07/07 06:13:44;;;;;;;1999.90;999.90;;;17.40;83.30;;;;;;5084036;28;20044;-72
2023/07/07 06:16:11;;;;;;;1999.90;999.90;;;17.40;83.60;;;;;;5084412;28;20110;-74
2023/07/07 06:18:39;;;;;;;1999.90;999.90;;;17.40;82.90;;;;;;5088899;28;20027;-76
2023/07/07 06:21:07;;;;;;;1999.90;999.90;;;17.50;83.10;;;;;;5085119;28;20158;-72
2023/07/07 06:23:35;;;;;;;1999.90;999.90;;;17.50;83.10;;;;;;5088716;28;20026;-74
2023/07/07 06:26:02;;;;;;;1999.90;999.90;;;17.50;83.00;;;;;;5080757;28;20028;-74
2023/07/07 06:28:30;;;;;;;1999.90;999.90;;;17.50;83.50;;;;;;5089864;28;20105;-73
2023/07/07 06:30:57;;;;;;;1999.90;999.90;;;17.40;83.10;;;;;;5089462;28;20574;-74
2023/07/07 06:33:24;;;;;;;1999.90;999.90;;;17.20;82.90;;;;;;5088381;28;20491;-76
2023/07/07 06:35:52;;;;;;;1999.90;999.90;;;17.20;83.60;;;;;;5085734;28;20047;-74
2023/07/07 06:38:19;;;;;;;1999.90;999.90;;;17.10;83.90;;;;;;5090915;28;20024;-72
2023/07/07 06:40:49;;;;;;;1999.90;999.90;;;16.90;84.10;;;;;;5086538;28;20034;-72
2023/07/07 06:43:20;;;;;;;1999.90;999.90;;;16.70;84.30;;;;;;5088591;28;20031;-74
2023/07/07 06:45:50;;;;;;;1999.90;999.90;;;16.50;84.90;;;;;;5085245;28;20046;-74
2023/07/07 06:48:17;;;;;;;1999.90;999.90;;;16.30;85.10;;;;;;5086658;28;20075;-73
2023/07/07 06:50:45;;;;;;;1999.90;999.90;;;16.20;86.50;;;;;;5090360;28;20066;-72
2023/07/07 06:53:12;;;;;;;1999.90;999.90;;;16.00;85.80;;;;;;5086479;28;20016;-73
2023/07/07 06:55:40;;;;;;;1999.90;999.90;;;15.90;86.20;;;;;;5085975;28;20079;-71
2023/07/07 06:58:10;;;;;;;1999.90;999.90;;;15.70;86.50;;;;;;5093814;28;20020;-73
2023/07/07 07:00:38;;;;;;;1999.90;999.90;;;15.60;86.70;;;;;;5091981;28;20055;-72
2023/07/07 07:03:05;;;;;;;1999.90;999.90;;;15.50;86.90;;;;;;5091738;28;20032;-72
2023/07/07 07:05:33;;;;;;;1999.90;999.90;;;15.40;87.30;;;;;;5095218;27;20032;-72
2023/07/07 07:08:00;;;;;;;1999.90;999.90;;;15.40;87.60;;;;;;5093451;28;20390;-74
2023/07/07 07:10:27;;;;;;;1999.90;999.90;;;15.10;88.10;;;;;;5088493;28;20035;-71
2023/07/07 07:12:54;;;;;;;1999.90;999.90;;;15.00;88.60;;;;;;5090811;28;20039;-71
2023/07/07 07:15:22;;;;;;;1999.90;999.90;;;14.90;88.80;;;;;;5083829;28;20483;-72
2023/07/07 07:17:49;;;;;;;1999.90;999.90;;;14.80;89.20;;;;;;5099086;28;20479;-72
2023/07/07 07:20:20;;;;;;;1999.90;999.90;;;14.70;89.20;;;;;;5092696;28;20066;-74
2023/07/07 07:22:48;;;;;;;1999.90;999.90;;;14.70;89.50;;;;;;5092276;28;20028;-73
2023/07/07 07:25:15;;;;;;;1999.90;999.90;;;14.60;89.80;;;;;;5086582;28;20058;-74
2023/07/07 07:27:43;;;;;;;1999.90;999.90;;;14.50;90.00;;;;;;5091608;28;20099;-72
2023/07/07 07:30:12;;;;;;;1999.90;999.90;;;14.50;90.10;;;;;;5089884;28;20042;-70
2023/07/07 07:32:39;;;;;;;1999.90;999.90;;;14.40;90.20;;;;;;5091145;28;20576;-71
2023/07/07 07:35:07;;;;;;;1999.90;999.90;;;14.30;90.50;;;;;;5089921;28;20059;-72
2023/07/07 07:37:34;;;;;;;1999.90;999.90;;;14.30;90.30;;;;;;5084865;28;20033;-70
2023/07/07 07:40:01;;;;;;;1999.90;999.90;;;14.30;90.40;;;;;;5093367;28;20111;-70
2023/07/07 07:42:30;;;;;;;1999.90;999.90;;;14.20;90.40;;;;;;5090331;28;20051;-70
2023/07/07 07:44:57;;;;;;;1999.90;999.90;;;14.20;90.50;;;;;;5089221;28;20098;-73
2023/07/07 07:47:25;;;;;;;1999.90;999.90;;;14.10;90.60;;;;;;5089518;28;20036;-72
2023/07/07 07:49:52;;;;;;;1999.90;999.90;;;14.10;90.70;;;;;;5084203;28;20028;-70
2023/07/07 07:52:19;;;;;;;1999.90;999.90;;;14.00;90.60;;;;;;5091419;27;20487;-71
2023/07/07 07:54:47;;;;;;;1999.90;999.90;;;14.00;90.50;;;;;;5082113;28;20029;-72
2023/07/07 07:57:16;;;;;;;1999.90;999.90;;;14.00;90.50;;;;;;5081806;28;20994;-72
2023/07/07 07:59:43;;;;;;;1999.90;999.90;;;13.90;90.50;;;;;;5076534;28;20040;-72
2023/07/07 08:02:14;;;;;;;1999.90;999.90;;;13.90;90.50;;;;;;5079633;28;20023;-71
2023/07/07 08:04:41;;;;;;;1999.90;999.90;;;13.90;90.50;;;;;;5082215;28;20051;-71
2023/07/07 08:07:08;;;;;;;1999.90;999.90;;;13.90;90.40;;;;;;5087975;28;20071;-71
2023/07/07 08:09:36;;;;;;;1999.90;999.90;;;13.90;90.20;;;;;;5080449;28;20143;-71
2023/07/07 08:12:03;;;;;;;1999.90;999.90;;;13.90;90.30;;;;;;5088530;28;20040;-71
2023/07/07 08:14:32;;;;;;;1999.90;999.90;;;13.80;90.50;;;;;;5080715;28;20016;-72
2023/07/07 08:17:04;;;;;;;1999.90;999.90;;;13.70;90.50;;;;;;5085364;28;20020;-71
2023/07/07 08:19:34;;;;;;;1999.90;999.90;;;13.60;90.80;;;;;;5085253;28;20036;-73
2023/07/07 08:22:06;;;;;;;1999.90;999.90;;;13.50;90.80;;;;;;5089493;28;20024;-72
2023/07/07 08:24:39;;;;;;;1999.90;999.90;;;13.40;91.10;;;;;;5087812;28;20081;-73
2023/07/07 08:27:07;;;;;;;1999.90;999.90;;;13.30;91.10;;;;;;5088761;28;20036;-73
2023/07/07 08:29:35;;;;;;;1999.90;999.90;;;13.20;91.30;;;;;;5088314;28;20133;-73
2023/07/07 08:32:02;;;;;;;1999.90;999.90;;;13.00;91.40;;;;;;5090777;28;20025;-71
2023/07/07 08:34:30;;;;;;;1999.90;999.90;;;12.90;91.70;;;;;;5089056;28;20062;-70
2023/07/07 08:37:00;;;;;;;1999.90;999.90;;;12.80;91.90;;;;;;5094993;28;20101;-74
2023/07/07 08:39:31;;;;;;;1999.90;999.90;;;12.70;92.10;;;;;;5087401;28;20024;-72
2023/07/07 08:42:25;;;;;;;1999.90;999.90;;;12.60;92.50;;;;;;5088999;28;20032;-72
2023/07/07 08:44:54;;;;;;;1999.90;999.90;;;12.50;92.70;;;;;;5072053;28;20040;-73
2023/07/07 08:47:49;;;;;;;1999.90;999.90;;;12.30;92.90;;;;;;5094887;28;20043;-71
2023/07/07 08:50:23;;;;;;;1999.90;999.90;;;12.20;93.00;;;;;;5075056;28;20031;-71
2023/07/07 08:53:08;;;;;;;1999.90;999.90;;;12.20;93.20;;;;;;5095436;28;20047;-72
2023/07/07 08:56:14;;;;;;;1999.90;999.90;;;12.10;93.30;;;;;;5089939;28;20538;-69
2023/07/07 08:59:17;;;;;;;1999.90;999.90;;;12.00;93.60;;;;;;5033007;28;20290;-70
2023/07/07 09:02:29;;;;;;;1999.90;999.90;;;11.90;93.80;;;;;;5077375;28;20491;-74
2023/07/07 09:05:22;;;;;;;1999.90;999.90;;;12.00;93.90;;;;;;5062703;28;20703;-71
2023/07/07 09:07:59;;;;;;;1999.90;999.90;;;12.10;93.80;;;;;;5088299;28;20048;-74
2023/07/07 09:10:36;;;;;;;1999.90;999.90;;;12.00;93.80;;;;;;5096179;28;20023;-74
2023/07/07 09:13:20;;;;;;;1999.90;999.90;;;12.00;93.90;;;;;;5084740;28;20038;-72
2023/07/07 09:16:01;;;;;;;1999.90;999.90;;;12.10;93.60;;;;;;5090888;28;20110;-72
2023/07/07 09:18:43;;;;;;;1999.90;999.90;;;12.10;93.40;;;;;;5083016;28;20020;-72
2023/07/07 09:21:25;;;;;;;1999.90;999.90;;;12.10;93.40;;;;;;5089054;28;20024;-73
2023/07/07 09:23:57;;;;;;;1999.90;999.90;;;12.00;93.60;;;;;;5085866;28;20032;-71
2023/07/07 09:26:32;;;;;;;1999.90;999.90;;;12.00;93.60;;;;;;5084628;28;20047;-74
2023/07/07 09:29:03;;;;;;;1999.90;999.90;;;11.90;94.00;;;;;;5096613;28;20379;-72
2023/07/07 09:31:48;;;;;;;1999.90;999.90;;;12.00;93.70;;;;;;5082904;28;20035;-74
2023/07/07 09:34:16;;;;;;;1999.90;999.90;;;11.90;93.80;;;;;;5086928;28;20016;-75
2023/07/07 09:37:06;;;;;;;1999.90;999.90;;;12.00;93.60;;;;;;5084232;28;20031;-74
2023/07/07 09:39:53;;;;;;;1999.90;999.90;;;12.00;93.60;;;;;;5081061;28;20032;-73
2023/07/07 09:43:03;;;;;;;1999.90;999.90;;;11.90;93.60;;;;;;5097258;28;20048;-73
2023/07/07 09:45:51;;;;;;;1999.90;999.90;;;11.80;93.80;;;;;;5087107;28;20082;-71
2023/07/07 09:48:37;;;;;;;1999.90;999.90;;;11.70;93.90;;;;;;5091335;28;20031;-74
2023/07/07 09:51:22;;;;;;;;;;;11.60;94.10;;;;;;5085868;28;20486;-73
2023/07/07 09:53:50;;;;;;;1999.90;999.90;;;11.50;94.50;;;;;;5086761;28;19970;-73
2023/07/07 09:56:24;;;;;;;1999.90;999.90;;;11.40;94.70;;;;;;5086946;28;20032;-72
2023/07/07 09:59:08;;;;;;;1999.90;999.90;;;11.30;94.90;;;;;;5092417;28;20035;-72
2023/07/07 10:01:42;;;;;;;1999.90;999.90;;;11.20;95.40;;;;;;5093761;28;20043;-72
2023/07/07 10:04:15;;;;;;;1999.90;999.90;;;11.10;95.60;;;;;;5088861;28;20051;-72
2023/07/07 10:06:56;;;;;;;1999.90;999.90;;;11.00;96.00;;;;;;5091879;28;20032;-75
2023/07/07 10:09:24;;;;;;;1999.90;999.90;;;10.80;96.20;;;;;;5093123;28;20020;-73
2023/07/07 10:11:52;;;;;;;1999.90;999.90;;;10.60;96.80;;;;;;5095092;28;20036;-71
2023/07/07 10:14:19;;;;;;;1999.90;999.90;;;10.50;97.30;;;;;;5091603;28;20438;-70
2023/07/07 10:17:10;;;;;;;1999.90;999.90;;;10.40;97.40;;;;;;5089691;28;20099;-70
2023/07/07 10:19:50;;;;;;;1999.90;999.90;;;10.20;97.80;;;;;;5091593;28;20099;-70
2023/07/07 10:22:17;;;;;;;1999.90;999.90;;;10.10;98.20;;;;;;5093450;28;20501;-69
2023/07/07 10:24:45;;;;;;;1999.90;999.90;;;10.00;98.60;;;;;;5087489;28;20036;-70
2023/07/07 10:27:16;;;;;;;1999.90;999.90;;;9.90;99.10;;;;;;5095271;28;20115;-73
2023/07/07 10:29:45;;;;;;;1999.90;999.90;;;9.80;99.40;;;;;;5085159;28;20414;-71
2023/07/07 10:32:15;;;;;;;1999.90;999.90;;;9.70;99.70;;;;;;5088719;28;20034;-70
2023/07/07 10:34:51;;;;;;;1999.90;999.90;;;9.70;99.90;;;;;;5086482;28;20468;-71
2023/07/07 10:37:28;;;;;;;1999.90;999.90;;;9.60;99.90;;;;;;5087948;28;20070;-69
2023/07/07 10:39:58;;;;;;;1999.90;999.90;;;9.50;99.90;;;;;;5093059;28;20487;-70
2023/07/07 10:42:27;;;;;;;1999.90;999.90;;;9.40;99.90;;;;;;5101422;28;20038;-72
2023/07/07 10:44:58;;;;;;;1999.90;999.90;;;9.40;99.90;;;;;;5092037;28;20111;-72
2023/07/07 10:47:31;;;;;;;1999.90;999.90;;;9.30;99.90;;;;;;5095680;28;20557;-70
2023/07/07 10:49:59;;;;;;;1999.90;999.90;;;9.40;99.90;;;;;;5088036;28;20141;-73
2023/07/07 10:52:57;;;;;;;1999.90;999.90;;;9.40;99.90;;;;;;5093669;28;20030;-73
2023/07/07 10:55:25;;;;;;;1999.90;999.90;;;9.60;99.90;;;;;;5093020;28;20422;-72
2023/07/07 10:58:19;;;;;;;1999.90;999.90;;;9.70;99.90;;;;;;5082526;28;20031;-71
2023/07/07 11:01:18;;;;;;;1999.90;999.90;;;9.80;99.90;;;;;;5071706;28;20624;-70
2023/07/07 11:04:06;;;;;;;1999.90;999.90;;;9.80;99.90;;;;;;5089061;28;20454;-70
2023/07/07 11:06:43;;;;;;;1999.90;999.90;;;9.80;99.90;;;;;;5091833;28;20498;-71
2023/07/07 11:09:19;;;;;;;1999.90;999.90;;;9.70;99.90;;;;;;5087221;28;20539;-71
2023/07/07 11:12:09;;;;;;;1999.90;999.90;;;9.60;99.90;;;;;;5081729;28;20016;-73
2023/07/07 11:15:11;;;;;;;1999.90;999.90;;;9.60;99.90;;;;;;5095892;28;20073;-70
2023/07/07 11:17:51;;;;;;;1999.90;999.90;;;9.60;99.90;;;;;;5089181;28;20067;-70
2023/07/07 11:20:59;;;;;;;1999.90;999.90;;;9.70;99.90;;;;;;5081094;28;20092;-71
2023/07/07 11:23:55;;;;;;;1999.90;999.90;;;9.80;99.90;;;;;;5074609;28;20117;-71
2023/07/07 11:26:38;;;;;;;1999.90;999.90;;;9.80;99.90;;;;;;5079022;28;20570;-72
2023/07/07 11:29:38;;;;;;;1999.90;999.90;;;9.80;99.80;;;;;;5087106;28;20026;-71
2023/07/07 11:32:24;;;;;;;1999.90;999.90;;;9.80;99.80;;;;;;5085893;28;20525;-69
2023/07/07 11:35:29;;;;;;;1999.90;999.90;;;9.80;99.90;;;;;;5083475;28;20520;-70
2023/07/07 11:38:38;;;;;;;1999.90;999.90;;;9.70;99.90;;;;;;5085607;28;20120;-70
2023/07/07 11:41:27;;;;;;;1999.90;999.90;;;9.50;99.90;;;;;;5071684;28;20036;-72
2023/07/07 11:44:36;;;;;;;1999.90;999.90;;;9.30;99.90;;;;;;5090220;28;20411;-73
2023/07/07 11:47:18;;;;;;;1999.90;999.90;;;9.20;99.90;;;;;;5085958;28;20567;-70
2023/07/07 11:50:01;;;;;;;1999.90;999.90;;;9.10;99.90;;;;;;5080681;28;20059;-76
2023/07/07 11:52:53;;;;;;;1999.90;999.90;;;9.00;99.90;;;;;;5091700;28;20063;-70
2023/07/07 11:55:58;;;;;;;1999.90;999.90;;;8.90;99.90;;;;;;5086570;28;20031;-75
2023/07/07 11:58:41;;;;;;;1999.90;999.90;;;8.70;99.90;;;;;;5089730;28;20035;-70
2023/07/07 12:01:22;;;;;;;1999.90;999.90;;;8.70;99.90;;;;;;5087113;28;20429;-73
2023/07/07 12:04:07;;;;;;;1999.90;999.90;;;8.60;99.90;;;;;;5091684;28;20039;-73
2023/07/07 12:06:57;;;;;;;1999.90;999.90;;;8.50;99.90;;;;;;5086972;28;20089;-71
2023/07/07 12:09:24;;;;;;;1999.90;999.90;;;8.50;99.90;;;;;;5083219;28;20044;-70
2023/07/07 12:12:15;;;;;;;1999.90;999.90;;;8.40;99.90;;;;;;5089259;28;20023;-73
2023/07/07 12:14:46;;;;;;;1999.90;999.90;;;8.30;99.90;;;;;;5092116;28;20032;-71
2023/07/07 12:17:19;;;;;;;1999.90;999.90;;;8.30;99.90;;;;;;5091485;28;20024;-73
2023/07/07 12:20:05;;;;;;;1999.90;999.90;;;8.30;99.90;;;;;;5086806;28;20024;-71
2023/07/07 12:22:40;;;;;;;1999.90;999.90;;;8.20;99.90;;;;;;5083354;28;20050;-71
2023/07/07 12:25:19;;;;;;;1999.90;999.90;;;8.10;99.90;;;;;;5088979;28;20277;-73
2023/07/07 12:27:51;;;;;;;1999.90;999.90;;;8.00;99.90;;;;;;5100445;28;20032;-70
2023/07/07 12:30:27;;;;;;;1999.90;999.90;;;7.90;99.90;;;;;;5082663;28;20378;-71
2023/07/07 12:32:54;;;;;;;;;;;7.90;99.90;;;;;;5083474;28;20016;-76